Time;durP1;ratioP1;P1;durP2;ratioP2;P2;SDS_P1;SDS_P2;PMS_P1;PMS_P2;Temp;Humidity;BMP_temperature;BMP_pressure;BME280_temperature;BME280_humidity;BME280_pressure;Samples;Min_cycle;Max_cycle;Signal;HPM_P1;HPM_P2
2022/07/22 00:02:22;;;;;;;7.35;2.20;;;18.00;99.90;;;;;;4974474;28;20457;-72
2022/07/22 00:04:48;;;;;;;7.13;2.80;;;18.00;99.90;;;;;;4974851;28;20361;-72
2022/07/22 00:07:15;;;;;;;11.60;3.13;;;18.00;99.90;;;;;;4973320;28;20472;-72
2022/07/22 00:09:41;;;;;;;13.57;2.03;;;18.00;99.90;;;;;;4975043;28;20042;-72
2022/07/22 00:12:06;;;;;;;11.02;2.22;;;17.90;99.90;;;;;;4974888;28;20035;-72
2022/07/22 00:14:32;;;;;;;14.15;2.40;;;18.00;99.90;;;;;;4974522;28;20034;-72
2022/07/22 00:16:58;;;;;;;8.32;2.05;;;18.00;99.90;;;;;;4974416;28;20038;-72
2022/07/22 00:19:24;;;;;;;6.05;2.20;;;17.90;99.90;;;;;;4974586;28;20031;-73
2022/07/22 00:21:50;;;;;;;7.50;1.77;;;18.00;99.90;;;;;;4974638;28;20061;-72
2022/07/22 00:24:16;;;;;;;8.98;2.38;;;17.90;99.90;;;;;;4974595;28;20099;-71
2022/07/22 00:26:42;;;;;;;5.95;2.10;;;18.00;99.90;;;;;;4974267;28;20187;-71
2022/07/22 00:29:07;;;;;;;8.05;2.33;;;17.90;99.90;;;;;;4974208;28;20058;-74
2022/07/22 00:31:33;;;;;;;7.55;1.85;;;17.90;99.90;;;;;;4974206;28;20054;-72
2022/07/22 00:34:03;;;;;;;6.70;2.00;;;17.90;99.90;;;;;;4974492;28;20101;-71
2022/07/22 00:36:29;;;;;;;7.50;2.03;;;17.90;99.90;;;;;;4974400;28;20069;-71
2022/07/22 00:38:55;;;;;;;6.32;1.90;;;18.00;99.90;;;;;;4974060;28;20456;-71
2022/07/22 00:41:21;;;;;;;5.95;2.10;;;18.00;99.90;;;;;;4974300;28;20098;-71
2022/07/22 00:44:05;;;;;;;7.05;1.83;;;18.00;99.90;;;;;;4974233;28;20030;-72
2022/07/22 00:46:32;;;;;;;6.35;1.67;;;18.00;99.90;;;;;;4973981;28;20048;-71
2022/07/22 00:48:58;;;;;;;7.88;1.92;;;18.00;99.90;;;;;;4974291;28;20118;-72
2022/07/22 00:51:26;;;;;;;9.90;1.55;;;18.00;99.90;;;;;;4974087;28;20049;-71
2022/07/22 00:53:52;;;;;;;9.73;1.80;;;18.00;99.90;;;;;;4973970;28;20110;-71
2022/07/22 00:56:18;;;;;;;10.52;1.88;;;17.90;99.90;;;;;;4974186;28;20023;-71
2022/07/22 00:58:48;;;;;;;6.82;1.77;;;17.90;99.90;;;;;;4973695;28;20098;-71
2022/07/22 01:01:14;;;;;;;8.35;1.95;;;17.90;99.90;;;;;;4973662;28;20377;-70
2022/07/22 01:03:40;;;;;;;8.93;1.88;;;17.90;99.90;;;;;;4974107;28;20437;-70
2022/07/22 01:06:06;;;;;;;5.82;1.60;;;17.90;99.90;;;;;;4974167;28;20110;-71
2022/07/22 01:08:32;;;;;;;6.47;1.55;;;17.90;99.90;;;;;;4974333;28;20125;-70
2022/07/22 01:11:13;;;;;;;6.80;1.85;;;17.90;99.90;;;;;;4973974;28;20082;-72
2022/07/22 01:13:39;;;;;;;7.85;1.55;;;17.90;99.90;;;;;;4973877;28;20027;-71
2022/07/22 01:16:06;;;;;;;7.80;1.70;;;17.80;99.90;;;;;;4973912;28;20054;-71
2022/07/22 01:18:32;;;;;;;7.60;1.35;;;17.90;99.90;;;;;;4973689;28;20046;-71
2022/07/22 01:20:58;;;;;;;9.70;2.00;;;17.90;99.90;;;;;;4973678;28;20457;-69
2022/07/22 01:23:24;;;;;;;6.80;1.80;;;17.80;99.90;;;;;;4973636;28;20027;-70
2022/07/22 01:25:50;;;;;;;6.40;2.05;;;17.80;99.90;;;;;;4973649;28;20034;-70
2022/07/22 01:28:15;;;;;;;11.27;3.22;;;17.80;99.90;;;;;;4973753;28;20365;-70
2022/07/22 01:30:41;;;;;;;6.00;1.83;;;17.80;99.90;;;;;;4973729;28;20019;-71
2022/07/22 01:33:06;;;;;;;5.18;1.90;;;17.80;99.90;;;;;;4973905;28;20023;-71
2022/07/22 01:35:32;;;;;;;4.85;1.50;;;17.80;99.90;;;;;;4973674;28;20381;-70
2022/07/22 01:37:58;;;;;;;5.05;1.60;;;17.80;99.90;;;;;;4973157;28;20061;-70
2022/07/22 01:40:24;;;;;;;6.60;1.90;;;17.80;99.90;;;;;;4973542;28;20548;-72
2022/07/22 01:42:49;;;;;;;7.85;1.52;;;17.80;99.90;;;;;;4973472;28;20027;-72
2022/07/22 01:45:15;;;;;;;4.35;1.67;;;17.80;99.90;;;;;;4973262;28;20030;-72
2022/07/22 01:47:41;;;;;;;4.90;1.75;;;17.80;99.90;;;;;;4973223;28;20154;-72
2022/07/22 01:50:09;;;;;;;4.50;1.48;;;17.80;99.90;;;;;;4973537;28;20449;-72
2022/07/22 01:52:35;;;;;;;6.57;1.73;;;17.80;99.90;;;;;;4972934;28;20030;-71
2022/07/22 01:55:01;;;;;;;8.95;1.98;;;17.80;99.90;;;;;;4973440;28;20445;-70
2022/07/22 01:57:27;;;;;;;7.97;1.58;;;17.80;99.90;;;;;;4972127;28;20449;-72
2022/07/22 01:59:52;;;;;;;6.78;2.33;;;17.80;99.90;;;;;;4973490;28;20061;-73
2022/07/22 02:02:18;;;;;;;4.43;1.95;;;17.80;99.90;;;;;;4973279;28;20089;-72
2022/07/22 02:04:43;;;;;;;6.90;2.00;;;17.80;99.90;;;;;;4973334;28;20042;-69
2022/07/22 02:07:09;;;;;;;7.57;1.90;;;17.80;99.90;;;;;;4973286;28;20050;-71
2022/07/22 02:09:34;;;;;;;7.90;1.83;;;17.80;99.90;;;;;;4971844;28;20034;-70
2022/07/22 02:12:00;;;;;;;2.28;1.55;;;17.80;99.90;;;;;;4973016;28;20019;-72
2022/07/22 02:14:25;;;;;;;4.97;1.85;;;17.80;99.90;;;;;;4973284;28;20097;-71
2022/07/22 02:16:51;;;;;;;5.50;1.65;;;17.80;99.90;;;;;;4972838;28;20023;-74
2022/07/22 02:19:17;;;;;;;4.65;1.60;;;17.80;99.90;;;;;;4972751;28;20089;-71
2022/07/22 02:21:42;;;;;;;7.40;2.35;;;17.80;99.90;;;;;;4973036;28;20449;-70
2022/07/22 02:24:08;;;;;;;9.65;1.92;;;17.80;99.90;;;;;;4975714;28;20580;-71
2022/07/22 02:26:34;;;;;;;7.13;1.77;;;17.80;99.90;;;;;;4975379;28;20027;-70
2022/07/22 02:29:00;;;;;;;5.50;1.40;;;17.80;99.90;;;;;;4976734;28;20035;-72
2022/07/22 02:31:25;;;;;;;5.45;1.65;;;17.80;99.90;;;;;;4976735;28;20118;-70
2022/07/22 02:33:51;;;;;;;5.50;1.63;;;17.80;99.90;;;;;;4976561;28;20022;-70
2022/07/22 02:36:17;;;;;;;6.90;1.52;;;17.80;99.90;;;;;;4976555;28;20030;-71
2022/07/22 02:38:42;;;;;;;5.40;1.35;;;17.80;99.90;;;;;;4975920;28;20054;-71
2022/07/22 02:41:08;;;;;;;2.63;1.40;;;17.80;99.90;;;;;;4976557;28;20029;-73
2022/07/22 02:43:33;;;;;;;4.78;1.48;;;17.80;99.90;;;;;;4976018;28;20019;-70
2022/07/22 02:45:59;;;;;;;6.00;1.70;;;17.80;99.90;;;;;;4976178;28;20129;-72
2022/07/22 02:48:25;;;;;;;6.82;1.40;;;17.70;99.90;;;;;;4976445;28;20030;-71
2022/07/22 02:50:50;;;;;;;7.65;1.30;;;17.70;99.90;;;;;;4974919;28;20030;-71
2022/07/22 02:53:16;;;;;;;7.63;1.17;;;17.70;99.90;;;;;;4975817;28;20792;-72
2022/07/22 02:55:41;;;;;;;5.88;1.90;;;17.70;99.90;;;;;;4975917;28;20026;-71
2022/07/22 02:58:08;;;;;;;2.95;1.48;;;17.70;99.90;;;;;;4976102;28;20031;-73
2022/07/22 03:00:35;;;;;;;4.70;1.25;;;17.70;99.90;;;;;;4975899;28;20031;-71
2022/07/22 03:03:01;;;;;;;2.90;1.02;;;17.70;99.90;;;;;;4976086;28;20073;-71
2022/07/22 03:05:26;;;;;;;4.63;1.23;;;17.70;99.90;;;;;;4976012;28;20443;-72
2022/07/22 03:07:52;;;;;;;4.15;1.80;;;17.70;99.90;;;;;;4975606;28;20045;-70
2022/07/22 03:10:17;;;;;;;5.10;1.60;;;17.70;99.90;;;;;;4975999;28;20086;-71
2022/07/22 03:12:43;;;;;;;2.80;1.45;;;17.70;99.90;;;;;;4975791;28;20033;-69
2022/07/22 03:15:09;;;;;;;4.95;1.65;;;17.70;99.90;;;;;;4975552;28;20062;-70
2022/07/22 03:17:35;;;;;;;4.32;1.40;;;17.70;99.90;;;;;;4975862;28;20022;-70
2022/07/22 03:20:04;;;;;;;3.30;1.20;;;17.70;99.90;;;;;;4975775;28;20042;-70
2022/07/22 03:22:29;;;;;;;6.30;1.60;;;17.70;99.90;;;;;;4975367;28;20457;-73
2022/07/22 03:24:55;;;;;;;2.55;1.20;;;17.70;99.90;;;;;;4975528;28;20073;-73
2022/07/22 03:27:20;;;;;;;6.82;1.58;;;17.70;99.90;;;;;;4974213;28;20457;-71
2022/07/22 03:29:46;;;;;;;3.85;1.40;;;17.70;99.90;;;;;;4974008;28;20354;-70
2022/07/22 03:32:11;;;;;;;4.43;1.40;;;17.70;99.90;;;;;;4975258;28;20047;-70
2022/07/22 03:34:37;;;;;;;3.38;1.40;;;17.70;99.90;;;;;;4974682;28;20058;-70
2022/07/22 03:37:03;;;;;;;3.47;1.58;;;17.70;99.90;;;;;;4975217;28;20026;-69
2022/07/22 03:39:29;;;;;;;3.60;1.10;;;17.70;99.90;;;;;;4975274;28;20185;-69
2022/07/22 03:41:54;;;;;;;6.32;1.50;;;17.70;99.90;;;;;;4973710;28;20022;-71
2022/07/22 03:44:20;;;;;;;6.15;1.42;;;17.70;99.90;;;;;;4974981;28;20019;-70
2022/07/22 03:46:45;;;;;;;7.00;1.50;;;17.60;99.90;;;;;;4975257;28;20038;-72
2022/07/22 03:49:11;;;;;;;3.90;1.23;;;17.60;99.90;;;;;;4975536;28;20038;-70
2022/07/22 03:51:37;;;;;;;6.60;2.17;;;17.60;99.90;;;;;;4974928;28;20037;-70
2022/07/22 03:54:02;;;;;;;3.97;1.48;;;17.60;99.90;;;;;;4973993;28;20369;-71
2022/07/22 03:56:28;;;;;;;5.88;1.73;;;17.60;99.90;;;;;;4974784;28;20027;-73
2022/07/22 03:58:53;;;;;;;5.68;1.40;;;17.50;99.90;;;;;;4974528;28;20073;-70
2022/07/22 04:01:19;;;;;;;5.50;1.35;;;17.50;99.90;;;;;;4974860;28;20106;-71
2022/07/22 04:03:44;;;;;;;8.63;1.33;;;17.50;99.90;;;;;;4974944;28;20019;-71
2022/07/22 04:06:10;;;;;;;5.47;1.88;;;17.50;99.90;;;;;;4974526;28;20047;-72
2022/07/22 04:08:36;;;;;;;2.42;1.52;;;17.50;99.90;;;;;;4973423;28;20051;-70
2022/07/22 04:11:01;;;;;;;6.25;1.58;;;17.50;99.90;;;;;;4973405;28;20450;-71
2022/07/22 04:13:27;;;;;;;7.05;1.65;;;17.50;99.90;;;;;;4974674;28;20046;-70
2022/07/22 04:15:52;;;;;;;8.82;2.45;;;17.50;99.90;;;;;;4974801;28;20023;-70
2022/07/22 04:18:18;;;;;;;6.90;1.88;;;17.50;99.90;;;;;;4974628;28;20030;-71
2022/07/22 04:20:44;;;;;;;5.13;1.80;;;17.50;99.90;;;;;;4974236;28;20035;-73
2022/07/22 04:23:09;;;;;;;5.80;1.70;;;17.50;99.90;;;;;;4974838;28;20522;-71
2022/07/22 04:25:35;;;;;;;7.93;2.00;;;17.50;99.90;;;;;;4974149;28;20035;-71
2022/07/22 04:28:01;;;;;;;6.65;1.90;;;17.50;99.90;;;;;;4974496;28;20090;-70
2022/07/22 04:30:26;;;;;;;5.60;1.65;;;17.50;99.90;;;;;;4974501;28;20026;-70
2022/07/22 04:32:52;;;;;;;3.83;1.63;;;17.50;99.90;;;;;;4973976;28;20069;-69
2022/07/22 04:35:17;;;;;;;8.00;1.88;;;17.50;99.90;;;;;;4973822;28;20030;-71
2022/07/22 04:37:43;;;;;;;6.65;1.85;;;17.60;99.90;;;;;;4974040;28;20095;-71
2022/07/22 04:40:09;;;;;;;10.40;1.88;;;17.60;99.90;;;;;;4974161;28;20031;-70
2022/07/22 04:42:35;;;;;;;3.30;1.77;;;17.60;99.90;;;;;;4974355;28;20019;-70
2022/07/22 04:45:00;;;;;;;6.75;1.90;;;17.60;99.90;;;;;;4973878;28;20372;-72
2022/07/22 04:47:26;;;;;;;4.68;2.00;;;17.70;99.90;;;;;;4972288;28;20345;-72
2022/07/22 04:49:52;;;;;;;9.13;1.83;;;17.70;99.90;;;;;;4973281;28;20026;-72
2022/07/22 04:52:18;;;;;;;6.10;1.48;;;17.70;99.90;;;;;;4974017;28;20034;-73
2022/07/22 04:54:44;;;;;;;5.70;2.45;;;17.80;99.90;;;;;;4973967;28;20030;-69
2022/07/22 04:57:12;;;;;;;9.27;2.03;;;17.80;99.90;;;;;;4972705;28;20019;-71
2022/07/22 04:59:37;;;;;;;5.15;1.58;;;17.80;99.90;;;;;;4973624;28;20038;-71
2022/07/22 05:02:03;;;;;;;6.10;1.40;;;17.80;99.90;;;;;;4973632;28;20035;-72
2022/07/22 05:04:29;;;;;;;5.28;1.30;;;17.90;99.90;;;;;;4973664;28;20023;-71
2022/07/22 05:06:54;;;;;;;7.63;1.85;;;17.90;99.90;;;;;;4973642;28;20026;-72
2022/07/22 05:09:20;;;;;;;4.55;1.33;;;17.90;99.90;;;;;;4973762;28;20531;-71
2022/07/22 05:11:46;;;;;;;6.68;1.95;;;17.90;99.90;;;;;;4973622;28;20023;-71
2022/07/22 05:14:11;;;;;;;6.75;1.55;;;17.90;99.90;;;;;;4973793;28;20356;-72
2022/07/22 05:16:37;;;;;;;5.75;1.63;;;17.90;99.90;;;;;;4973898;28;20120;-70
2022/07/22 05:19:04;;;;;;;10.50;2.10;;;17.90;99.90;;;;;;4971697;28;20065;-70
2022/07/22 05:21:30;;;;;;;5.63;1.80;;;17.90;99.90;;;;;;4973745;28;20026;-70
2022/07/22 05:23:56;;;;;;;4.72;1.75;;;17.90;99.90;;;;;;4973781;28;20027;-70
2022/07/22 05:26:21;;;;;;;4.47;1.50;;;17.90;99.90;;;;;;4973532;28;20142;-72
2022/07/22 05:28:47;;;;;;;7.65;1.73;;;17.90;99.90;;;;;;4973586;28;20136;-71
2022/07/22 05:31:13;;;;;;;5.50;1.40;;;18.00;99.90;;;;;;4973877;28;20058;-71
2022/07/22 05:33:38;;;;;;;5.88;1.98;;;17.90;99.90;;;;;;4973508;28;20380;-73
2022/07/22 05:36:05;;;;;;;12.43;1.90;;;17.90;99.90;;;;;;4973472;28;20480;-70
2022/07/22 05:38:33;;;;;;;7.40;2.30;;;17.90;99.90;;;;;;4973583;28;20117;-70
2022/07/22 05:40:58;;;;;;;6.32;2.13;;;17.90;99.90;;;;;;4973648;28;20141;-72
2022/07/22 05:43:24;;;;;;;5.35;1.95;;;17.90;99.90;;;;;;4967961;28;20109;-71
2022/07/22 05:45:49;;;;;;;8.07;1.90;;;18.00;99.90;;;;;;4973051;28;20110;-71
2022/07/22 05:48:15;;;;;;;6.50;1.58;;;18.00;99.90;;;;;;4973420;28;20364;-70
2022/07/22 05:50:41;;;;;;;7.80;2.42;;;18.00;99.90;;;;;;4973428;28;20033;-70
2022/07/22 05:53:06;;;;;;;14.05;2.63;;;18.10;99.90;;;;;;4973357;28;20437;-70
2022/07/22 05:55:32;;;;;;;4.60;1.50;;;18.10;99.90;;;;;;4973398;28;20018;-69
2022/07/22 05:57:57;;;;;;;3.00;1.63;;;18.20;99.90;;;;;;4973998;28;20031;-71
2022/07/22 06:00:23;;;;;;;11.05;2.33;;;18.20;99.90;;;;;;4976970;28;20070;-70
2022/07/22 06:02:48;;;;;;;5.63;2.58;;;18.30;99.90;;;;;;4977041;28;20109;-70
2022/07/22 06:05:14;;;;;;;4.82;1.70;;;18.30;99.90;;;;;;4977195;28;20030;-69
2022/07/22 06:07:40;;;;;;;5.03;1.85;;;18.40;99.90;;;;;;4977116;28;20042;-73
2022/07/22 06:10:05;;;;;;;4.72;1.92;;;18.50;99.90;;;;;;4976933;28;20062;-70
2022/07/22 06:12:31;;;;;;;6.75;1.88;;;18.50;99.90;;;;;;4976541;28;20058;-70
2022/07/22 06:14:56;;;;;;;6.85;2.00;;;18.60;99.90;;;;;;4977437;28;20086;-72
2022/07/22 06:17:22;;;;;;;13.75;1.77;;;18.70;99.90;;;;;;4976950;28;20026;-70
2022/07/22 06:19:47;;;;;;;4.72;1.20;;;18.70;99.90;;;;;;4976600;28;20054;-71
2022/07/22 06:22:13;;;;;;;6.85;1.95;;;18.80;99.90;;;;;;4976525;28;20023;-72
2022/07/22 06:24:38;;;;;;;6.35;1.52;;;18.90;99.90;;;;;;4976401;28;20027;-70
2022/07/22 06:27:04;;;;;;;4.55;1.60;;;19.00;99.90;;;;;;4976755;28;20030;-72
2022/07/22 06:29:29;;;;;;;3.67;1.60;;;19.10;99.90;;;;;;4976455;28;20035;-69
2022/07/22 06:31:55;;;;;;;6.88;1.42;;;19.10;99.90;;;;;;4976484;28;20023;-69
2022/07/22 06:34:21;;;;;;;7.40;1.83;;;19.10;99.90;;;;;;4988787;28;20089;-69
2022/07/22 06:36:46;;;;;;;6.40;1.48;;;19.10;99.90;;;;;;4994150;28;20073;-71
2022/07/22 06:39:12;;;;;;;4.03;1.85;;;19.10;99.90;;;;;;4995922;28;20033;-72
2022/07/22 06:41:37;;;;;;;7.22;1.73;;;19.20;99.90;;;;;;4995151;28;20026;-70
2022/07/22 06:44:03;;;;;;;9.85;2.13;;;19.30;99.90;;;;;;4996333;28;20356;-70
2022/07/22 06:46:29;;;;;;;9.02;2.03;;;19.40;99.90;;;;;;4995311;28;20081;-70
2022/07/22 06:48:54;;;;;;;3.97;1.27;;;19.50;99.90;;;;;;4995579;28;20041;-73
2022/07/22 06:51:20;;;;;;;4.95;1.25;;;19.60;99.90;;;;;;4995751;28;20027;-70
2022/07/22 06:53:46;;;;;;;5.53;1.35;;;19.70;99.90;;;;;;4995638;28;20407;-69
2022/07/22 06:56:13;;;;;;;4.80;1.35;;;19.80;99.90;;;;;;4974391;28;20446;-71
2022/07/22 06:58:39;;;;;;;4.88;1.45;;;19.90;99.90;;;;;;4974392;28;20109;-70
2022/07/22 07:01:04;;;;;;;5.70;1.55;;;20.10;99.90;;;;;;4973226;28;20081;-71
2022/07/22 07:03:30;;;;;;;3.38;1.08;;;20.10;99.90;;;;;;4974633;28;20038;-70
2022/07/22 07:05:56;;;;;;;3.90;0.82;;;20.30;99.90;;;;;;4974879;28;20038;-70
2022/07/22 07:08:21;;;;;;;4.75;1.08;;;20.40;99.90;;;;;;4974645;28;20015;-72
2022/07/22 07:10:48;;;;;;;2.80;1.30;;;20.70;98.90;;;;;;4974330;28;20034;-72
2022/07/22 07:13:13;;;;;;;4.25;1.10;;;20.90;99.00;;;;;;4974877;28;20037;-71
2022/07/22 07:15:39;;;;;;;4.20;1.20;;;21.00;98.40;;;;;;4972795;28;20360;-69
2022/07/22 07:18:05;;;;;;;3.70;0.98;;;21.10;98.50;;;;;;4972891;28;20019;-71
2022/07/22 07:20:30;;;;;;;3.05;0.80;;;21.20;98.40;;;;;;4972642;28;20123;-69
2022/07/22 07:23:00;;;;;;;3.22;1.02;;;21.10;97.50;;;;;;4973497;28;20034;-69
2022/07/22 07:25:26;;;;;;;4.40;0.85;;;20.90;97.80;;;;;;4974546;28;20025;-70
2022/07/22 07:27:52;;;;;;;2.47;1.10;;;20.80;97.70;;;;;;4974655;28;20018;-68
2022/07/22 07:30:17;;;;;;;5.38;1.15;;;20.70;97.90;;;;;;4974731;28;20038;-69
2022/07/22 07:32:43;;;;;;;4.57;1.50;;;20.70;97.80;;;;;;4975607;28;20097;-71
2022/07/22 07:35:09;;;;;;;3.88;1.00;;;20.70;98.40;;;;;;4975524;28;20027;-69
2022/07/22 07:37:34;;;;;;;3.83;1.10;;;20.80;98.00;;;;;;4975679;28;20029;-69
2022/07/22 07:40:00;;;;;;;2.78;1.13;;;21.00;98.00;;;;;;4975449;28;20034;-72
2022/07/22 07:42:26;;;;;;;4.28;1.00;;;21.10;97.80;;;;;;4975079;28;20469;-69
2022/07/22 07:44:52;;;;;;;3.70;1.58;;;21.20;97.80;;;;;;4975152;28;20121;-70
2022/07/22 07:47:20;;;;;;;4.75;1.20;;;21.30;97.40;;;;;;4974781;28;20125;-69
2022/07/22 07:49:46;;;;;;;6.75;1.70;;;21.50;97.30;;;;;;4975284;28;20437;-72
2022/07/22 07:52:16;;;;;;;4.45;1.40;;;21.50;96.80;;;;;;4975341;28;20027;-72
2022/07/22 07:54:42;;;;;;;5.20;1.58;;;21.50;96.90;;;;;;4973842;28;20381;-69
2022/07/22 07:57:10;;;;;;;5.05;1.25;;;21.60;97.50;;;;;;4975558;28;20037;-70
2022/07/22 07:59:36;;;;;;;5.63;1.30;;;21.70;96.30;;;;;;4974780;28;20034;-69
2022/07/22 08:02:02;;;;;;;4.18;1.25;;;21.70;96.20;;;;;;4975045;28;20031;-70
2022/07/22 08:04:28;;;;;;;3.38;1.02;;;21.80;96.80;;;;;;4974809;28;20031;-72
2022/07/22 08:06:54;;;;;;;3.63;1.30;;;21.80;96.50;;;;;;4973415;28;20078;-70
2022/07/22 08:09:19;;;;;;;2.80;1.25;;;21.90;95.90;;;;;;4974881;28;20055;-72
2022/07/22 08:11:45;;;;;;;4.13;1.33;;;21.90;96.30;;;;;;4975077;28;20472;-69
2022/07/22 08:14:11;;;;;;;4.63;1.10;;;22.00;96.10;;;;;;4974426;28;20057;-69
2022/07/22 08:16:37;;;;;;;2.70;1.10;;;22.00;96.00;;;;;;4974586;28;20031;-69
2022/07/22 08:19:03;;;;;;;3.80;1.15;;;22.00;95.90;;;;;;4975144;28;20034;-69
2022/07/22 08:21:28;;;;;;;3.08;1.20;;;22.00;96.00;;;;;;4974411;28;20027;-70
2022/07/22 08:23:54;;;;;;;3.28;1.30;;;22.10;96.30;;;;;;4973325;28;20026;-69
2022/07/22 08:26:19;;;;;;;6.05;1.30;;;22.30;95.50;;;;;;4974628;28;20062;-71
2022/07/22 08:28:45;;;;;;;6.35;1.60;;;22.50;95.00;;;;;;4974530;28;20026;-70
2022/07/22 08:31:11;;;;;;;5.68;1.45;;;22.60;95.30;;;;;;4974453;28;20030;-71
2022/07/22 08:33:37;;;;;;;8.10;1.75;;;22.80;95.00;;;;;;4973196;28;20050;-70
2022/07/22 08:36:03;;;;;;;2.83;0.90;;;22.90;94.70;;;;;;4974172;28;20469;-69
2022/07/22 08:38:29;;;;;;;3.03;0.95;;;23.00;93.40;;;;;;4974430;28;20027;-70
2022/07/22 08:40:55;;;;;;;4.43;1.35;;;22.90;93.60;;;;;;4973176;28;20436;-69
2022/07/22 08:43:22;;;;;;;4.10;1.13;;;23.00;94.50;;;;;;4974391;28;20019;-69
2022/07/22 08:45:48;;;;;;;5.15;1.40;;;23.20;94.20;;;;;;4974012;28;20047;-72
2022/07/22 08:48:14;;;;;;;3.47;1.30;;;23.30;92.10;;;;;;4971098;28;20019;-70
2022/07/22 08:50:39;;;;;;;5.85;1.48;;;23.30;93.00;;;;;;4974100;28;20033;-70
2022/07/22 08:53:11;;;;;;;4.63;2.45;;;23.50;93.10;;;;;;4974364;28;20027;-70
2022/07/22 08:55:45;;;;;;;6.70;2.60;;;23.70;92.50;;;;;;4973795;28;20023;-73
2022/07/22 08:58:11;;;;;;;8.68;3.97;;;24.00;93.00;;;;;;4974312;28;20031;-69
2022/07/22 09:00:37;;;;;;;6.30;1.98;;;24.30;93.20;;;;;;4973965;28;20090;-69
2022/07/22 09:03:17;;;;;;;2.80;1.15;;;24.60;93.30;;;;;;4974082;28;20114;-71
2022/07/22 09:05:43;;;;;;;4.95;1.52;;;24.80;91.30;;;;;;4973915;28;20023;-71
2022/07/22 09:08:09;;;;;;;5.22;1.08;;;25.10;91.80;;;;;;4973699;28;20023;-72
2022/07/22 09:10:35;;;;;;;4.72;1.45;;;25.20;91.30;;;;;;4973596;28;20094;-69
2022/07/22 09:13:04;;;;;;;3.55;1.45;;;25.50;91.30;;;;;;4973928;28;20091;-70
2022/07/22 09:15:39;;;;;;;6.80;1.98;;;25.60;91.30;;;;;;4973852;28;20018;-72
2022/07/22 09:18:05;;;;;;;4.38;1.00;;;25.80;90.70;;;;;;4973511;28;20420;-70
2022/07/22 09:20:32;;;;;;;4.78;1.70;;;26.00;89.00;;;;;;4973608;28;20449;-70
2022/07/22 09:22:57;;;;;;;5.00;1.90;;;26.00;88.20;;;;;;4973581;28;20049;-71
2022/07/22 09:25:33;;;;;;;3.67;1.63;;;25.80;87.60;;;;;;4973596;28;20446;-69
2022/07/22 09:28:05;;;;;;;5.07;1.52;;;25.50;88.70;;;;;;4973628;28;20066;-72
2022/07/22 09:30:31;;;;;;;5.80;1.70;;;25.30;88.90;;;;;;4972995;28;20102;-70
2022/07/22 09:32:57;;;;;;;4.72;2.17;;;25.10;90.60;;;;;;4974071;28;20035;-70
2022/07/22 09:35:24;;;;;;;8.00;2.22;;;25.00;90.20;;;;;;4977490;28;20342;-69
2022/07/22 09:37:57;;;;;;;6.53;2.00;;;24.90;90.20;;;;;;4977224;28;20082;-70
2022/07/22 09:40:25;;;;;;;3.70;1.88;;;24.90;90.80;;;;;;4977404;28;20046;-70
2022/07/22 09:42:53;;;;;;;6.82;1.52;;;24.80;91.10;;;;;;4977612;28;20027;-70
2022/07/22 09:45:21;;;;;;;6.90;2.53;;;24.70;91.20;;;;;;4977262;28;20037;-72
2022/07/22 09:47:48;;;;;;;5.45;2.13;;;24.70;91.50;;;;;;4977106;28;20069;-70
2022/07/22 09:50:20;;;;;;;5.95;1.90;;;24.50;90.70;;;;;;4977230;28;20034;-70
2022/07/22 09:52:46;;;;;;;5.25;2.15;;;24.30;90.90;;;;;;4977890;28;20042;-71
2022/07/22 09:55:17;;;;;;;5.28;2.67;;;24.00;92.00;;;;;;4975962;28;20030;-69
2022/07/22 09:57:43;;;;;;;5.75;1.65;;;23.80;92.70;;;;;;4977194;28;20026;-71
2022/07/22 10:00:10;;;;;;;6.55;2.50;;;23.70;93.00;;;;;;4976771;28;20026;-70
2022/07/22 10:02:47;;;;;;;4.63;2.00;;;23.50;93.60;;;;;;4977134;28;20023;-72
2022/07/22 10:05:17;;;;;;;6.72;2.97;;;23.40;93.50;;;;;;4977360;28;20025;-73
2022/07/22 10:07:44;;;;;;;4.90;1.98;;;23.30;94.20;;;;;;4976709;28;20372;-69
2022/07/22 10:10:13;;;;;;;3.88;1.30;;;23.10;94.50;;;;;;4976409;28;20031;-69
2022/07/22 10:12:39;;;;;;;3.88;1.10;;;23.00;94.00;;;;;;4975940;28;20113;-71
2022/07/22 10:15:07;;;;;;;4.70;1.30;;;22.80;94.20;;;;;;4976232;28;20034;-72
2022/07/22 10:17:35;;;;;;;5.90;2.15;;;22.70;94.40;;;;;;4973809;28;20113;-69
2022/07/22 10:20:01;;;;;;;4.50;1.25;;;22.50;94.80;;;;;;4976589;28;20457;-70
2022/07/22 10:22:38;;;;;;;3.38;1.77;;;22.40;95.20;;;;;;4976881;28;20070;-70
2022/07/22 10:25:05;;;;;;;4.80;1.58;;;22.30;94.80;;;;;;4976599;28;20460;-73
2022/07/22 10:27:48;;;;;;;2.47;1.30;;;22.30;94.90;;;;;;4976454;28;20321;-72
2022/07/22 10:30:17;;;;;;;8.15;1.33;;;22.30;95.10;;;;;;4976793;28;20051;-70
2022/07/22 10:32:43;;;;;;;4.28;1.75;;;22.20;94.80;;;;;;4976775;28;20022;-69
2022/07/22 10:35:09;;;;;;;5.80;1.60;;;22.10;95.40;;;;;;4975285;28;20053;-70
2022/07/22 10:37:34;;;;;;;4.03;1.33;;;22.00;95.20;;;;;;4976387;28;20441;-73
2022/07/22 10:40:20;;;;;;;2.60;1.20;;;21.90;95.10;;;;;;4976373;28;20143;-71
2022/07/22 10:43:00;;;;;;;3.63;1.50;;;21.70;95.80;;;;;;4976444;28;20350;-70
2022/07/22 10:45:38;;;;;;;4.05;1.20;;;21.60;96.20;;;;;;4976005;28;20030;-71
2022/07/22 10:48:08;;;;;;;3.97;1.10;;;21.50;96.00;;;;;;4976500;28;20027;-69
2022/07/22 10:50:37;;;;;;;3.15;1.20;;;21.30;96.10;;;;;;4976236;28;20027;-73
2022/07/22 10:53:12;;;;;;;2.15;1.25;;;21.20;96.20;;;;;;4976323;28;20033;-70
2022/07/22 10:55:58;;;;;;;3.78;1.48;;;21.10;96.70;;;;;;4974873;28;20023;-71
2022/07/22 10:58:36;;;;;;;2.47;1.10;;;21.00;96.70;;;;;;4976243;28;20461;-70
2022/07/22 11:01:07;;;;;;;3.83;1.10;;;21.00;96.80;;;;;;4975940;28;20042;-70
2022/07/22 11:03:33;;;;;;;9.68;2.00;;;21.00;96.90;;;;;;4975807;28;20480;-72
2022/07/22 11:06:14;;;;;;;6.65;1.20;;;21.10;97.30;;;;;;4974736;28;20381;-71
2022/07/22 11:08:41;;;;;;;5.60;1.60;;;21.20;97.10;;;;;;4975781;28;20045;-73
2022/07/22 11:11:07;;;;;;;4.03;1.50;;;21.30;96.80;;;;;;4975887;28;20023;-70
2022/07/22 11:13:40;;;;;;;3.60;1.33;;;21.50;97.10;;;;;;4975547;28;20034;-71
2022/07/22 11:16:21;;;;;;;3.67;1.15;;;21.60;96.40;;;;;;4976252;28;20484;-69
2022/07/22 11:18:56;;;;;;;3.65;1.13;;;21.70;96.50;;;;;;4975707;28;20029;-71
2022/07/22 11:21:23;;;;;;;4.55;1.15;;;21.90;96.40;;;;;;4975438;28;20074;-70
2022/07/22 11:23:52;;;;;;;4.22;1.58;;;22.10;96.10;;;;;;4975364;28;20426;-71
2022/07/22 11:26:26;;;;;;;6.85;1.50;;;22.30;95.80;;;;;;4975342;28;20042;-74
2022/07/22 11:28:52;;;;;;;5.03;1.35;;;22.40;96.00;;;;;;4975720;28;20030;-72
2022/07/22 11:31:18;;;;;;;3.47;1.30;;;22.60;95.30;;;;;;4975726;28;20026;-71
2022/07/22 11:33:47;;;;;;;3.53;1.30;;;22.60;94.90;;;;;;4975183;28;20023;-71
2022/07/22 11:36:13;;;;;;;4.50;1.40;;;22.70;95.20;;;;;;4975292;28;20041;-71
2022/07/22 11:38:44;;;;;;;7.05;1.60;;;22.70;94.60;;;;;;4975672;28;20026;-71
2022/07/22 11:41:10;;;;;;;4.10;1.40;;;22.70;94.60;;;;;;4977701;28;20065;-71
2022/07/22 11:43:49;;;;;;;2.30;1.35;;;22.80;94.50;;;;;;4977143;28;20031;-71
2022/07/22 11:46:16;;;;;;;5.25;1.25;;;22.90;94.00;;;;;;4974716;28;20043;-71
2022/07/22 11:48:43;;;;;;;4.32;1.15;;;23.00;93.80;;;;;;4975296;28;20031;-70
2022/07/22 11:51:10;;;;;;;6.03;1.30;;;22.90;94.00;;;;;;4973880;28;20033;-72
2022/07/22 11:53:38;;;;;;;1.98;1.15;;;22.80;94.40;;;;;;4975350;28;20022;-71
2022/07/22 11:56:05;;;;;;;7.40;1.77;;;22.90;94.70;;;;;;4974156;28;20464;-70
2022/07/22 11:58:39;;;;;;;3.97;1.70;;;22.90;94.20;;;;;;4975256;28;20437;-73
2022/07/22 12:01:10;;;;;;;6.20;1.63;;;23.00;95.10;;;;;;4974534;28;20030;-71
2022/07/22 12:03:37;;;;;;;3.17;1.80;;;23.10;95.30;;;;;;4974871;28;20026;-70
2022/07/22 12:06:06;;;;;;;9.55;1.73;;;23.10;95.40;;;;;;4974800;28;20029;-70
2022/07/22 12:08:32;;;;;;;3.80;1.73;;;23.20;95.40;;;;;;4974549;28;20197;-70
2022/07/22 12:10:59;;;;;;;7.07;1.52;;;23.20;94.60;;;;;;4974828;28;20023;-73
2022/07/22 12:13:31;;;;;;;6.85;1.55;;;23.10;93.90;;;;;;4973829;28;20086;-69
2022/07/22 12:15:58;;;;;;;3.88;1.88;;;23.20;94.30;;;;;;4969303;28;20038;-71
2022/07/22 12:18:26;;;;;;;6.35;1.58;;;23.40;93.70;;;;;;4974198;28;20488;-70
2022/07/22 12:20:53;;;;;;;2.58;1.25;;;23.80;93.40;;;;;;4973819;28;20125;-70
2022/07/22 12:23:21;;;;;;;5.30;1.40;;;24.20;92.70;;;;;;4974121;28;20023;-73
2022/07/22 12:26:04;;;;;;;9.02;1.40;;;24.60;92.80;;;;;;4974710;28;20503;-71
2022/07/22 12:28:30;;;;;;;6.00;1.20;;;25.00;91.80;;;;;;4974488;28;20050;-70
2022/07/22 12:30:56;;;;;;;3.72;1.38;;;25.30;91.80;;;;;;4974475;28;20073;-69
2022/07/22 12:33:23;;;;;;;1.85;1.13;;;25.40;92.00;;;;;;4973918;28;20027;-70
2022/07/22 12:36:03;;;;;;;7.60;1.33;;;25.50;92.00;;;;;;4974593;28;20409;-71
2022/07/22 12:38:29;;;;;;;7.03;1.70;;;25.60;90.50;;;;;;4972342;28;20026;-70
2022/07/22 12:40:55;;;;;;;4.43;1.08;;;25.50;90.70;;;;;;4974100;28;20070;-71
2022/07/22 12:43:25;;;;;;;5.75;1.30;;;25.60;91.40;;;;;;4973967;28;20420;-74
2022/07/22 12:45:52;;;;;;;6.82;1.45;;;25.90;91.10;;;;;;4973847;28;20066;-70